Time;durP1;ratioP1;P1;durP2;ratioP2;P2;SDS_P1;SDS_P2;PMS_P1;PMS_P2;Temp;Humidity;BMP_temperature;BMP_pressure;BME280_temperature;BME280_humidity;BME280_pressure;Samples;Min_cycle;Max_cycle;Signal;HPM_P1;HPM_P2
2023/09/24 00:02:18;;;;;;;3.35;1.35;;;;;;;16.25;72.00;102332.59;5031672;28;20021;-77
2023/09/24 00:04:43;;;;;;;3.47;1.33;;;;;;;16.28;71.84;102327.41;5031795;28;20081;-76
2023/09/24 00:07:20;;;;;;;4.72;1.42;;;;;;;16.26;71.68;102334.38;5032002;28;20053;-77
2023/09/24 00:09:46;;;;;;;4.60;1.50;;;;;;;16.26;71.64;102328.22;5031672;28;20675;-76
2023/09/24 00:12:12;;;;;;;3.70;1.38;;;;;;;16.21;71.83;102338.69;5031294;28;20041;-77
2023/09/24 00:14:39;;;;;;;4.20;1.30;;;;;;;16.23;71.87;102339.56;5030598;28;20502;-77
2023/09/24 00:17:21;;;;;;;4.45;1.33;;;;;;;16.16;71.69;102338.59;5031580;28;20128;-76
2023/09/24 00:19:58;;;;;;;3.53;1.40;;;;;;;16.18;71.78;102338.63;5031061;28;20030;-77
2023/09/24 00:22:24;;;;;;;3.65;1.40;;;;;;;16.16;71.57;102338.59;5031024;28;20128;-77
2023/09/24 00:24:56;;;;;;;3.28;1.52;;;;;;;16.14;71.54;102340.34;5031535;28;20108;-77
2023/09/24 00:27:27;;;;;;;5.15;1.42;;;;;;;15.94;72.08;102339.19;5031737;28;20040;-77
2023/09/24 00:29:55;;;;;;;4.43;1.48;;;;;;;16.02;71.95;102340.19;5029848;28;20029;-76
2023/09/24 00:32:24;;;;;;;5.00;1.63;;;;;;;16.05;71.69;102347.22;5031233;28;20075;-77
2023/09/24 00:34:49;;;;;;;5.43;1.33;;;;;;;15.96;71.64;102348.00;5030725;28;20040;-77
2023/09/24 00:37:21;;;;;;;4.78;1.80;;;;;;;15.95;71.83;102348.84;5031363;28;20120;-77
2023/09/24 00:39:47;;;;;;;3.65;1.27;;;;;;;15.99;71.65;102355.03;5030754;28;20030;-77
2023/09/24 00:42:13;;;;;;;4.80;1.40;;;;;;;16.01;71.47;102353.31;5030922;28;20108;-77
2023/09/24 00:44:44;;;;;;;4.60;1.40;;;;;;;16.01;71.03;102354.19;5030709;28;20120;-77
2023/09/24 00:47:11;;;;;;;2.58;1.23;;;;;;;16.00;71.14;102354.16;5030918;28;20076;-77
2023/09/24 00:49:43;;;;;;;3.50;1.40;;;;;;;15.97;71.26;102348.88;5030534;28;20111;-77
2023/09/24 00:52:09;;;;;;;5.13;1.70;;;;;;;15.82;71.19;102349.53;5030823;28;20033;-77
2023/09/24 00:54:35;;;;;;;6.10;1.50;;;;;;;15.87;71.20;102355.72;5029639;28;20033;-77
2023/09/24 00:57:00;;;;;;;4.70;1.50;;;;;;;15.87;71.33;102360.09;5031336;28;20044;-77
2023/09/24 00:59:27;;;;;;;3.92;1.45;;;;;;;15.82;71.19;102358.28;5030989;28;20056;-77
2023/09/24 01:01:57;;;;;;;5.72;1.60;;;;;;;15.77;71.63;102361.72;5031077;28;20038;-76
2023/09/24 01:04:28;;;;;;;5.40;1.60;;;;;;;15.81;71.20;102353.00;5031194;28;20057;-77
2023/09/24 01:06:57;;;;;;;6.78;1.58;;;;;;;15.81;71.22;102353.00;5030541;28;20036;-77
2023/09/24 01:09:22;;;;;;;4.60;1.42;;;;;;;15.81;71.16;102359.16;5030751;28;20033;-76
2023/09/24 01:11:54;;;;;;;6.38;1.60;;;;;;;15.74;71.38;102357.28;5030119;28;20037;-77
2023/09/24 01:14:20;;;;;;;7.15;1.67;;;;;;;15.83;70.90;102346.91;5030708;28;20116;-76
2023/09/24 01:16:55;;;;;;;5.18;1.70;;;;;;;15.78;71.17;102356.50;5028405;28;20120;-76
2023/09/24 01:19:23;;;;;;;8.00;1.58;;;;;;;15.81;70.76;102359.16;5030331;28;20487;-76
2023/09/24 01:21:52;;;;;;;4.57;1.40;;;;;;;15.83;70.80;102351.28;5029578;28;20037;-77
2023/09/24 01:24:19;;;;;;;3.22;1.40;;;;;;;15.89;70.68;102346.13;5029979;28;20052;-77
2023/09/24 01:26:46;;;;;;;4.30;1.30;;;;;;;15.86;70.68;102351.31;5029689;28;20053;-76
2023/09/24 01:29:11;;;;;;;7.28;1.65;;;;;;;15.80;70.57;102359.13;5030267;28;20033;-76
2023/09/24 01:31:40;;;;;;;5.88;1.85;;;;;;;15.89;70.27;102355.75;5029805;28;20117;-76
2023/09/24 01:34:11;;;;;;;5.63;1.58;;;;;;;15.95;70.11;102351.47;5029979;28;20128;-77
2023/09/24 01:36:49;;;;;;;3.03;1.55;;;;;;;15.83;70.33;102349.56;5029399;28;20045;-77
2023/09/24 01:39:22;;;;;;;4.10;1.60;;;;;;;15.88;70.13;102346.97;5029846;28;20029;-77
2023/09/24 01:41:51;;;;;;;4.55;1.70;;;;;;;15.96;69.93;102350.63;5029248;28;20049;-77
2023/09/24 01:44:22;;;;;;;3.92;1.60;;;;;;;15.95;69.80;102345.31;5030032;28;20033;-76
2023/09/24 01:46:48;;;;;;;5.40;1.67;;;;;;;15.95;69.88;102351.47;5028620;28;20083;-76
2023/09/24 01:49:23;;;;;;;4.80;1.88;;;;;;;15.99;69.40;102360.28;5028776;28;20079;-76
2023/09/24 01:51:48;;;;;;;5.25;1.83;;;;;;;16.00;69.39;102359.44;5029206;28;20083;-76
2023/09/24 01:54:13;;;;;;;5.82;1.73;;;;;;;15.99;69.44;102350.66;5029888;28;20629;-76
2023/09/24 01:56:38;;;;;;;4.80;2.00;;;;;;;15.84;70.21;102368.84;5029101;28;20049;-76
2023/09/24 01:59:07;;;;;;;4.55;1.80;;;;;;;15.97;69.70;102367.28;5030022;28;20034;-76
2023/09/24 02:01:33;;;;;;;4.43;1.80;;;;;;;15.99;69.70;102369.06;5029479;28;20505;-76
2023/09/24 02:03:59;;;;;;;3.90;1.50;;;;;;;15.92;69.66;102363.72;5030435;28;20434;-76
2023/09/24 02:06:27;;;;;;;4.25;1.70;;;;;;;15.97;69.56;102364.66;5030099;28;20025;-76
2023/09/24 02:09:01;;;;;;;3.60;1.70;;;;;;;15.88;69.97;102373.28;5029880;28;20044;-76
2023/09/24 02:11:27;;;;;;;4.28;1.77;;;;;;;15.80;70.26;102372.25;5029201;28;20499;-76
2023/09/24 02:13:59;;;;;;;4.30;1.80;;;;;;;15.94;69.82;102372.47;5030614;28;20033;-76
2023/09/24 02:16:24;;;;;;;5.40;1.70;;;;;;;15.90;69.34;102363.69;5030490;28;20045;-76
2023/09/24 02:18:49;;;;;;;3.97;1.83;;;;;;;15.91;69.71;102364.56;5030526;28;20030;-75
2023/09/24 02:21:24;;;;;;;4.55;1.90;;;;;;;15.96;69.47;102371.66;5030519;28;20067;-75
2023/09/24 02:23:59;;;;;;;4.80;1.60;;;;;;;15.94;69.43;102367.22;5029732;28;20049;-75
2023/09/24 02:26:24;;;;;;;;;;;;;;;15.87;69.65;102368.88;5029981;28;20033;-76
2023/09/24 02:28:52;;;;;;;4.00;1.70;;;;;;;15.85;69.74;102370.63;5029194;28;19983;-75
2023/09/24 02:31:24;;;;;;;6.72;1.90;;;;;;;15.83;69.82;102367.97;5030265;28;20284;-75
2023/09/24 02:33:49;;;;;;;3.85;1.70;;;;;;;15.81;69.87;102372.28;5030099;28;20099;-75
2023/09/24 02:36:17;;;;;;;5.50;2.08;;;;;;;15.83;69.44;102369.69;5029898;28;20432;-75
2023/09/24 02:38:43;;;;;;;4.32;1.60;;;;;;;15.76;69.66;102366.09;5029693;28;20037;-75
2023/09/24 02:41:11;;;;;;;8.68;2.08;;;;;;;15.75;69.78;102361.69;5029701;28;20033;-75
2023/09/24 02:43:37;;;;;;;3.72;1.63;;;;;;;15.63;70.41;102363.22;5029574;28;20037;-75
2023/09/24 02:46:09;;;;;;;6.45;1.65;;;;;;;15.66;70.44;102358.94;5030022;28;20530;-75
2023/09/24 02:48:35;;;;;;;3.75;1.80;;;;;;;15.64;70.25;102359.75;5029214;28;20042;-75
2023/09/24 02:51:10;;;;;;;5.38;1.90;;;;;;;15.62;70.35;102364.97;5029923;28;20356;-75
2023/09/24 02:53:38;;;;;;;4.65;1.70;;;;;;;15.68;70.21;102366.81;5028829;28;20499;-76
2023/09/24 02:56:07;;;;;;;5.70;1.70;;;;;;;15.66;70.11;102369.44;5027539;28;20049;-75
2023/09/24 02:58:32;;;;;;;8.25;1.90;;;;;;;15.69;69.87;102364.22;5029311;28;20046;-75
2023/09/24 03:00:57;;;;;;;4.68;1.60;;;;;;;15.68;70.04;102359.81;5029838;28;20483;-76
2023/09/24 03:03:29;;;;;;;6.47;2.08;;;;;;;15.61;70.36;102368.50;5029809;28;20582;-75
2023/09/24 03:06:03;;;;;;;3.97;1.80;;;;;;;15.64;70.06;102370.25;5029763;28;20437;-75
2023/09/24 03:08:32;;;;;;;5.53;1.67;;;;;;;15.67;70.19;102368.59;5029234;28;20541;-76
2023/09/24 03:11:16;;;;;;;5.15;1.70;;;;;;;15.63;70.28;102372.00;5030086;28;20034;-75
2023/09/24 03:13:41;;;;;;;7.07;1.75;;;;;;;15.63;70.03;102377.25;5029893;28;20033;-75
2023/09/24 03:16:07;;;;;;;4.95;1.95;;;;;;;15.62;69.84;102386.00;5030220;28;20033;-75
2023/09/24 03:18:33;;;;;;;4.70;1.80;;;;;;;15.56;70.06;102385.91;5031789;28;20108;-75
2023/09/24 03:20:58;;;;;;;6.10;1.83;;;;;;;15.54;70.22;102394.63;5033351;28;20055;-76
2023/09/24 03:23:27;;;;;;;6.72;1.85;;;;;;;15.51;70.42;102392.78;5032078;28;20030;-75
2023/09/24 03:25:52;;;;;;;5.28;2.10;;;;;;;15.50;70.48;102398.00;5032289;28;20026;-75
2023/09/24 03:28:18;;;;;;;5.28;1.80;;;;;;;15.53;70.15;102399.00;5032363;28;20454;-75
2023/09/24 03:30:43;;;;;;;4.30;1.88;;;;;;;15.48;70.44;102399.75;5032383;28;20368;-76
2023/09/24 03:33:08;;;;;;;6.35;1.88;;;;;;;15.43;70.66;102399.66;5033287;28;20056;-75
2023/09/24 03:35:43;;;;;;;5.30;2.20;;;;;;;15.40;71.05;102405.75;5032978;28;20075;-75
2023/09/24 03:38:11;;;;;;;5.45;2.00;;;;;;;15.37;71.27;102397.81;5033133;28;20042;-75
2023/09/24 03:40:37;;;;;;;4.85;2.03;;;;;;;15.40;71.01;102403.13;5032953;28;20125;-75
2023/09/24 03:43:02;;;;;;;6.90;1.90;;;;;;;15.43;70.75;102407.53;5033165;28;20464;-75
2023/09/24 03:45:28;;;;;;;5.05;2.00;;;;;;;15.40;71.08;102418.00;5032714;28;20037;-76
2023/09/24 03:47:53;;;;;;;8.02;1.90;;;;;;;15.46;71.04;102414.59;5033193;28;20029;-76
2023/09/24 03:50:26;;;;;;;7.53;2.40;;;;;;;15.44;71.20;102412.81;5032920;28;20376;-76
2023/09/24 03:52:52;;;;;;;7.30;2.13;;;;;;;15.37;71.43;102417.94;5031012;28;20044;-75
2023/09/24 03:55:21;;;;;;;3.97;1.80;;;;;;;15.42;71.39;102416.31;5032540;28;20083;-76
2023/09/24 03:57:47;;;;;;;6.45;2.10;;;;;;;15.39;71.56;102422.38;5033968;28;20037;-76
2023/09/24 04:00:18;;;;;;;5.57;2.00;;;;;;;15.42;71.33;102421.56;5035438;28;20036;-76
2023/09/24 04:02:47;;;;;;;7.72;2.30;;;;;;;15.44;71.16;102430.34;5037321;28;20040;-75
2023/09/24 04:05:21;;;;;;;7.00;2.30;;;;;;;15.39;71.60;102421.50;5032935;28;20029;-77
2023/09/24 04:07:52;;;;;;;5.45;2.20;;;;;;;15.44;71.47;102425.06;5032034;28;20037;-77
2023/09/24 04:10:20;;;;;;;6.55;2.35;;;;;;;15.42;71.80;102425.06;5032346;28;20088;-75
2023/09/24 04:12:46;;;;;;;6.00;2.35;;;;;;;15.42;71.85;102435.59;5032161;28;20048;-75
2023/09/24 04:15:13;;;;;;;7.70;2.60;;;;;;;15.39;72.21;102426.75;5033417;28;20403;-76
2023/09/24 04:17:41;;;;;;;6.53;2.50;;;;;;;15.49;71.69;102430.44;5032400;28;20042;-76
2023/09/24 04:20:07;;;;;;;5.22;2.63;;;;;;;15.50;71.75;102434.81;5032916;28;20030;-76
2023/09/24 04:22:36;;;;;;;7.82;2.60;;;;;;;15.44;72.12;102435.59;5031905;28;20115;-76
2023/09/24 04:25:07;;;;;;;5.60;2.75;;;;;;;15.50;71.98;102434.81;5032726;28;20237;-76
2023/09/24 04:27:40;;;;;;;6.28;2.88;;;;;;;15.39;72.60;102430.25;5031652;28;20491;-76
2023/09/24 04:30:24;;;;;;;7.05;2.85;;;;;;;15.49;71.77;102431.28;5031919;28;20029;-76
2023/09/24 04:32:54;;;;;;;5.97;2.80;;;;;;;15.49;71.69;102433.94;5031497;28;20168;-76
2023/09/24 04:35:23;;;;;;;9.40;2.90;;;;;;;15.49;71.75;102438.31;5032935;28;20109;-76
2023/09/24 04:37:50;;;;;;;7.10;2.90;;;;;;;15.44;71.79;102444.38;5031406;28;20041;-76
2023/09/24 04:40:23;;;;;;;10.20;2.88;;;;;;;15.42;71.85;102435.59;5032295;28;20037;-76
2023/09/24 04:42:51;;;;;;;7.55;3.00;;;;;;;15.34;72.06;102439.81;5031781;28;20451;-76
2023/09/24 04:45:17;;;;;;;7.32;3.40;;;;;;;15.37;72.38;102438.97;5032360;28;20052;-76
2023/09/24 04:47:46;;;;;;;7.20;3.40;;;;;;;15.40;72.33;102433.78;5031213;28;20038;-76
2023/09/24 04:50:12;;;;;;;8.45;3.50;;;;;;;15.41;72.04;102438.19;5032178;28;20114;-76
2023/09/24 04:52:38;;;;;;;7.10;3.75;;;;;;;15.32;72.56;102433.63;5032037;28;20519;-77
2023/09/24 04:55:05;;;;;;;8.05;3.42;;;;;;;15.34;72.56;102434.56;5033667;28;20475;-77
2023/09/24 04:57:30;;;;;;;8.20;3.45;;;;;;;15.30;72.80;102432.72;5037584;28;20038;-78
2023/09/24 04:59:59;;;;;;;8.50;3.50;;;;;;;15.32;72.77;102438.00;5038571;28;20037;-77
2023/09/24 05:02:24;;;;;;;7.95;3.28;;;;;;;15.34;72.42;102437.19;5037777;28;20117;-77
2023/09/24 05:04:50;;;;;;;7.55;3.25;;;;;;;15.30;72.28;102443.25;5036605;28;20029;-77
2023/09/24 05:07:16;;;;;;;6.22;3.20;;;;;;;15.29;72.23;102446.72;5038104;28;20059;-77
2023/09/24 05:09:48;;;;;;;6.25;3.22;;;;;;;15.27;72.19;102443.16;5036338;28;20093;-76
2023/09/24 05:12:13;;;;;;;7.13;3.20;;;;;;;15.26;72.13;102445.75;5032042;28;20078;-76
2023/09/24 05:14:41;;;;;;;8.93;3.33;;;;;;;15.23;72.41;102440.47;5030759;28;20048;-76
2023/09/24 05:17:09;;;;;;;7.65;3.60;;;;;;;15.26;72.32;102445.75;5031403;28;20033;-76
2023/09/24 05:19:41;;;;;;;8.32;4.00;;;;;;;15.22;73.07;102447.47;5031148;28;20495;-76
2023/09/24 05:22:09;;;;;;;8.25;3.42;;;;;;;15.29;72.68;102445.84;5031646;28;20037;-76
2023/09/24 05:24:46;;;;;;;7.10;3.35;;;;;;;15.29;72.79;102449.34;5030692;28;20040;-76
2023/09/24 05:27:12;;;;;;;9.48;3.50;;;;;;;15.28;72.98;102446.69;5031570;28;20041;-76
2023/09/24 05:29:37;;;;;;;7.85;3.80;;;;;;;15.27;73.26;102443.16;5031159;28;20030;-76
2023/09/24 05:32:12;;;;;;;9.70;3.78;;;;;;;15.34;72.89;102449.44;5031045;28;20034;-76
2023/09/24 05:34:37;;;;;;;9.88;3.60;;;;;;;15.29;72.91;102451.97;5030920;28;20037;-76
2023/09/24 05:37:03;;;;;;;7.82;3.55;;;;;;;15.27;73.09;102450.16;5031331;28;20407;-76
2023/09/24 05:39:28;;;;;;;9.95;3.70;;;;;;;15.32;73.11;102453.75;5030947;28;20057;-76
2023/09/24 05:41:57;;;;;;;9.32;3.53;;;;;;;15.39;73.03;102461.78;5030771;28;20694;-76
2023/09/24 05:44:25;;;;;;;7.13;3.50;;;;;;;15.28;73.72;102462.44;5031316;28;20116;-76
2023/09/24 05:46:51;;;;;;;8.18;3.38;;;;;;;15.40;73.27;102465.31;5031140;28;20065;-76
2023/09/24 05:49:16;;;;;;;9.00;3.40;;;;;;;15.47;73.28;102467.22;5030862;28;20411;-76
2023/09/24 05:51:42;;;;;;;7.55;3.38;;;;;;;15.51;73.05;102469.03;5030536;28;20510;-76
2023/09/24 05:54:11;;;;;;;9.90;3.75;;;;;;;15.49;73.39;102477.75;5031080;28;20064;-76
2023/09/24 05:56:37;;;;;;;8.40;3.60;;;;;;;15.50;73.45;102472.50;5030304;28;20060;-76
2023/09/24 05:59:12;;;;;;;7.18;3.50;;;;;;;15.56;73.46;102475.28;5028950;28;20068;-76
2023/09/24 06:01:39;;;;;;;8.25;3.80;;;;;;;15.62;73.35;102467.50;5029016;28;20037;-76
2023/09/24 06:04:04;;;;;;;5.72;3.50;;;;;;;15.65;73.22;102472.81;5030619;28;20486;-77
2023/09/24 06:06:30;;;;;;;7.15;3.70;;;;;;;15.69;73.06;102476.38;5029964;28;20036;-76
2023/09/24 06:09:03;;;;;;;8.77;3.67;;;;;;;15.71;72.72;102479.94;5030943;28;20045;-77
2023/09/24 06:11:28;;;;;;;6.57;3.60;;;;;;;15.74;72.69;102482.59;5031985;28;20030;-79
2023/09/24 06:13:53;;;;;;;7.45;3.90;;;;;;;15.79;72.67;102480.97;5033586;28;20124;-77
2023/09/24 06:16:19;;;;;;;8.60;3.63;;;;;;;15.79;72.79;102473.97;5035742;28;20069;-77
2023/09/24 06:18:44;;;;;;;6.93;3.72;;;;;;;15.79;72.64;102483.59;5033659;28;20026;-77
2023/09/24 06:21:18;;;;;;;8.25;3.67;;;;;;;15.98;72.70;102488.28;5033042;28;20072;-77
2023/09/24 06:23:44;;;;;;;6.85;3.65;;;;;;;16.16;73.02;102491.22;5032422;28;20687;-77
2023/09/24 06:26:09;;;;;;;7.28;3.22;;;;;;;16.43;72.61;102489.88;5032807;28;20032;-77
2023/09/24 06:28:34;;;;;;;9.57;3.60;;;;;;;16.64;70.68;102487.63;5030296;28;20034;-78
2023/09/24 06:31:05;;;;;;;9.60;3.58;;;;;;;16.95;69.71;102497.72;5032003;28;20068;-77
2023/09/24 06:33:30;;;;;;;6.78;3.72;;;;;;;17.36;69.23;102492.03;5035818;28;20434;-77
2023/09/24 06:36:03;;;;;;;7.55;3.58;;;;;;;17.85;68.26;102485.53;5034064;28;20034;-77
2023/09/24 06:38:32;;;;;;;7.18;3.67;;;;;;;18.37;64.13;102486.81;5030031;28;20038;-78
2023/09/24 06:41:10;;;;;;;7.47;3.58;;;;;;;18.92;59.93;102492.47;5029975;28;20112;-77
2023/09/24 06:43:35;;;;;;;9.27;4.30;;;;;;;19.38;56.79;102489.13;5029311;28;20038;-76
2023/09/24 06:46:06;;;;;;;10.32;4.00;;;;;;;20.08;55.38;102486.59;5030329;28;20075;-76
2023/09/24 06:48:32;;;;;;;9.70;3.85;;;;;;;20.61;53.40;102485.69;5029644;28;20045;-75
2023/09/24 06:51:08;;;;;;;10.68;3.85;;;;;;;20.59;51.81;102495.38;5030615;28;20036;-75
2023/09/24 06:53:38;;;;;;;9.05;4.00;;;;;;;20.48;53.28;102486.59;5034076;28;20045;-75
2023/09/24 06:56:07;;;;;;;8.98;3.70;;;;;;;20.84;50.67;102493.56;5034747;28;20037;-75
2023/09/24 06:58:36;;;;;;;9.30;3.83;;;;;;;21.22;50.99;102504.06;5033470;28;20064;-76
2023/09/24 07:01:06;;;;;;;6.90;3.58;;;;;;;21.18;50.47;102504.94;5033921;28;20037;-75
2023/09/24 07:03:32;;;;;;;9.15;3.58;;;;;;;21.50;49.63;102504.78;5033411;28;20037;-75
2023/09/24 07:05:57;;;;;;;5.25;3.20;;;;;;;22.26;48.49;102511.28;5033765;28;20040;-76
2023/09/24 07:08:26;;;;;;;7.20;3.13;;;;;;;22.17;48.04;102513.16;5033713;28;20395;-76
2023/09/24 07:11:33;;;;;;;6.32;3.15;;;;;;;22.59;46.55;102510.09;5033177;28;20101;-75
2023/09/24 07:14:01;;;;;;;6.50;3.33;;;;;;;22.45;46.40;102514.66;5033607;28;20065;-75
2023/09/24 07:16:27;;;;;;;7.25;3.10;;;;;;;22.60;45.09;102517.19;5033544;28;20175;-75
2023/09/24 07:18:53;;;;;;;5.45;2.80;;;;;;;22.31;46.80;102521.91;5032947;28;20566;-78
2023/09/24 07:21:21;;;;;;;7.03;2.90;;;;;;;21.89;47.64;102525.75;5032641;28;20033;-75
2023/09/24 07:23:47;;;;;;;9.98;2.97;;;;;;;21.18;49.98;102529.69;5032261;28;20041;-77
2023/09/24 07:26:14;;;;;;;8.75;2.97;;;;;;;20.85;49.95;102527.13;5032764;28;20036;-76
2023/09/24 07:28:43;;;;;;;5.40;2.90;;;;;;;20.26;52.16;102528.94;5032748;28;20080;-77
2023/09/24 07:31:21;;;;;;;7.28;2.90;;;;;;;19.46;55.49;102526.19;5032687;28;20037;-77
2023/09/24 07:33:50;;;;;;;6.93;2.97;;;;;;;19.60;55.05;102528.88;5032689;28;20176;-77
2023/09/24 07:36:19;;;;;;;6.90;2.70;;;;;;;19.38;55.76;102515.56;5032906;28;20053;-77
2023/09/24 07:38:45;;;;;;;10.45;2.70;;;;;;;19.27;56.52;102521.72;5032478;28;20041;-76
2023/09/24 07:41:11;;;;;;;7.88;3.05;;;;;;;18.95;56.95;102530.38;5033114;28;20029;-76
2023/09/24 07:43:44;;;;;;;7.70;2.75;;;;;;;18.78;57.57;102534.69;5032782;28;20048;-76
2023/09/24 07:46:14;;;;;;;5.32;2.58;;;;;;;18.88;57.61;102531.22;5033318;28;20022;-76
2023/09/24 07:48:44;;;;;;;7.72;2.95;;;;;;;18.87;57.11;102534.72;5032174;28;20383;-76
2023/09/24 07:51:13;;;;;;;7.55;2.78;;;;;;;18.99;56.86;102539.19;5032502;28;20042;-77
2023/09/24 07:53:42;;;;;;;15.75;3.15;;;;;;;18.97;57.32;102540.94;5032280;28;20041;-77
2023/09/24 07:56:08;;;;;;;8.27;3.13;;;;;;;18.85;57.87;102535.59;5033395;28;20041;-77
2023/09/24 07:58:35;;;;;;;8.02;3.10;;;;;;;18.91;57.32;102532.97;5032151;28;20042;-76
2023/09/24 08:01:06;;;;;;;9.23;3.17;;;;;;;18.96;57.57;102533.91;5033094;28;20081;-77
2023/09/24 08:03:39;;;;;;;5.90;2.80;;;;;;;19.22;57.60;102532.25;5031373;28;20080;-77
2023/09/24 08:06:14;;;;;;;8.25;3.50;;;;;;;19.25;56.45;102532.28;5033486;28;20087;-78
2023/09/24 08:08:39;;;;;;;6.65;3.40;;;;;;;19.08;56.96;102536.59;5032839;28;20444;-77
2023/09/24 08:11:05;;;;;;;6.18;3.20;;;;;;;19.16;56.23;102534.88;5033058;28;20053;-78
2023/09/24 08:13:31;;;;;;;6.82;3.53;;;;;;;19.38;55.37;102526.16;5033024;28;20506;-76
2023/09/24 08:15:56;;;;;;;8.35;3.22;;;;;;;19.14;56.13;102527.81;5033237;28;20030;-77
2023/09/24 08:18:23;;;;;;;8.75;3.35;;;;;;;19.24;56.13;102526.97;5031616;28;20103;-76
2023/09/24 08:20:49;;;;;;;8.68;3.42;;;;;;;19.16;56.33;102536.63;5031193;28;20045;-76
2023/09/24 08:23:15;;;;;;;6.93;3.33;;;;;;;19.42;55.75;102535.84;5032446;28;20022;-74
2023/09/24 08:25:44;;;;;;;8.02;3.28;;;;;;;19.51;55.66;102536.81;5031631;28;20042;-76
2023/09/24 08:28:10;;;;;;;7.32;3.13;;;;;;;19.59;54.86;102542.97;5032564;28;20037;-77
2023/09/24 08:30:35;;;;;;;8.15;3.10;;;;;;;19.66;55.69;102543.00;5031768;28;20079;-76
2023/09/24 08:33:04;;;;;;;7.38;3.40;;;;;;;19.58;55.72;102546.53;5032291;28;20026;-77
2023/09/24 08:35:32;;;;;;;7.00;3.17;;;;;;;19.42;55.94;102558.78;5032626;28;20032;-77
2023/09/24 08:37:57;;;;;;;6.38;3.10;;;;;;;19.78;55.63;102552.72;5031737;28;20037;-76
2023/09/24 08:40:28;;;;;;;6.35;3.00;;;;;;;19.78;55.87;102544.78;5030815;28;20029;-75
2023/09/24 08:42:55;;;;;;;6.32;3.00;;;;;;;19.99;55.38;102541.31;5029169;28;20030;-75
2023/09/24 08:45:21;;;;;;;5.45;2.75;;;;;;;19.87;54.82;102546.59;5031348;28;20089;-76
2023/09/24 08:47:47;;;;;;;6.32;2.97;;;;;;;19.95;54.88;102542.16;5030811;28;20617;-76
2023/09/24 08:50:14;;;;;;;6.38;2.72;;;;;;;19.89;55.69;102535.09;5031355;28;20037;-75
2023/09/24 08:52:44;;;;;;;5.82;3.00;;;;;;;19.57;55.52;102536.81;5030497;28;20519;-75
2023/09/24 08:55:11;;;;;;;7.10;3.13;;;;;;;19.96;55.05;102544.81;5031458;28;20037;-76
2023/09/24 08:57:37;;;;;;;6.13;2.92;;;;;;;19.95;55.49;102532.47;5030905;28;20113;-76
2023/09/24 09:00:09;;;;;;;6.97;3.00;;;;;;;20.21;55.27;102543.06;5030830;28;20037;-75
2023/09/24 09:02:35;;;;;;;7.47;2.80;;;;;;;20.37;54.68;102536.06;5030966;28;20072;-75
2023/09/24 09:05:03;;;;;;;6.90;2.45;;;;;;;20.49;54.06;102541.34;5032201;28;20506;-75
2023/09/24 09:07:29;;;;;;;7.40;3.00;;;;;;;20.35;53.94;102537.81;5032186;28;20033;-75
2023/09/24 09:09:56;;;;;;;7.00;2.78;;;;;;;20.57;54.05;102526.28;5032096;28;20083;-74
2023/09/24 09:12:24;;;;;;;5.03;2.50;;;;;;;20.87;53.38;102520.03;5031639;28;20033;-75
2023/09/24 09:14:50;;;;;;;5.95;2.40;;;;;;;20.74;53.45;102523.63;5029573;28;20038;-75
2023/09/24 09:17:16;;;;;;;5.13;2.58;;;;;;;20.42;52.20;102529.88;5030655;28;20038;-75
2023/09/24 09:19:54;;;;;;;5.07;2.47;;;;;;;20.91;52.59;102522.69;5030439;28;20425;-76
2023/09/24 09:22:24;;;;;;;4.65;2.33;;;;;;;20.82;51.79;102520.06;5030970;28;20515;-76
2023/09/24 09:25:00;;;;;;;11.13;2.60;;;;;;;21.13;51.34;102518.19;5030905;28;20049;-76
2023/09/24 09:27:39;;;;;;;6.22;2.30;;;;;;;21.12;51.12;102516.41;5031057;28;20115;-76
2023/09/24 09:30:19;;;;;;;7.07;2.60;;;;;;;21.22;51.69;102515.53;5030912;28;20056;-75
2023/09/24 09:32:45;;;;;;;8.32;2.35;;;;;;;21.19;50.93;102520.84;5029285;28;20037;-75
2023/09/24 09:35:12;;;;;;;7.70;2.35;;;;;;;21.34;50.86;102518.13;5030551;28;20068;-76
2023/09/24 09:37:39;;;;;;;5.03;2.10;;;;;;;21.44;50.23;102519.84;5029966;28;20044;-76
2023/09/24 09:40:06;;;;;;;5.20;1.80;;;;;;;21.44;50.44;102513.66;5030420;28;20057;-75
2023/09/24 09:42:35;;;;;;;6.60;2.20;;;;;;;20.77;51.82;102513.91;5029583;28;20045;-76
2023/09/24 09:45:05;;;;;;;4.13;1.75;;;;;;;21.24;50.88;102510.19;5030347;28;20037;-75
2023/09/24 09:47:34;;;;;;;4.47;1.70;;;;;;;21.38;51.42;102508.38;5029661;28;20095;-74
2023/09/24 09:50:03;;;;;;;5.85;2.10;;;;;;;21.29;51.41;102500.44;5030302;28;20045;-75
2023/09/24 09:52:51;;;;;;;3.72;1.80;;;;;;;21.55;51.24;102501.19;5030299;28;20037;-75
2023/09/24 09:55:17;;;;;;;4.47;1.65;;;;;;;21.50;51.42;102512.72;5030184;28;20087;-72
2023/09/24 09:57:43;;;;;;;4.53;1.73;;;;;;;21.73;49.72;102502.84;5029317;28;20352;-74
2023/09/24 10:00:16;;;;;;;5.40;1.85;;;;;;;21.88;48.78;102497.44;5029437;28;20506;-75
2023/09/24 10:02:47;;;;;;;5.05;1.88;;;;;;;21.99;48.57;102502.69;5028863;28;20046;-74
2023/09/24 10:05:18;;;;;;;6.47;1.80;;;;;;;22.14;48.20;102497.25;5029528;28;20053;-74
2023/09/24 10:07:58;;;;;;;4.30;1.80;;;;;;;22.02;47.02;102497.34;5027851;28;20033;-74
2023/09/24 10:10:33;;;;;;;6.18;1.92;;;;;;;22.06;47.03;102486.69;5029504;28;20030;-74
2023/09/24 10:12:59;;;;;;;4.80;1.70;;;;;;;22.20;47.29;102479.47;5029404;28;20522;-72
2023/09/24 10:15:30;;;;;;;4.07;1.88;;;;;;;22.55;46.54;102472.94;5030237;28;20025;-73
2023/09/24 10:18:08;;;;;;;7.38;1.90;;;;;;;22.03;46.54;102488.47;5029088;28;20590;-72
2023/09/24 10:20:55;;;;;;;3.05;1.40;;;;;;;22.67;45.16;102486.09;5028931;28;20126;-74
2023/09/24 10:23:29;;;;;;;4.65;1.73;;;;;;;22.75;44.45;102484.25;5029162;28;20037;-72
2023/09/24 10:26:03;;;;;;;5.50;1.90;;;;;;;22.92;45.07;102481.41;5028749;28;20122;-72
2023/09/24 10:28:47;;;;;;;6.82;1.90;;;;;;;23.10;43.13;102481.16;5033369;28;20037;-74
2023/09/24 10:31:12;;;;;;;5.95;1.73;;;;;;;23.00;44.57;102474.19;5033269;28;20045;-73
2023/09/24 10:34:02;;;;;;;5.22;1.70;;;;;;;22.52;45.99;102473.84;5033210;28;20395;-72
2023/09/24 10:36:33;;;;;;;5.22;1.90;;;;;;;22.61;46.19;102484.38;5033656;28;20060;-73
2023/09/24 10:39:13;;;;;;;6.35;1.80;;;;;;;22.89;45.65;102481.44;5033168;28;20476;-73
2023/09/24 10:42:09;;;;;;;5.95;1.88;;;;;;;21.89;45.70;102487.69;5031693;28;20045;-74
2023/09/24 10:44:35;;;;;;;5.00;1.77;;;;;;;22.53;45.24;102480.03;5033878;28;20084;-74
2023/09/24 10:47:27;;;;;;;6.38;2.10;;;;;;;22.88;45.25;102479.66;5034355;28;20503;-73
2023/09/24 10:50:06;;;;;;;5.75;1.90;;;;;;;22.24;47.06;102478.56;5032873;28;20079;-73
2023/09/24 10:52:53;;;;;;;4.95;1.77;;;;;;;21.94;47.17;102480.56;5032504;28;20052;-71
2023/09/24 10:55:34;;;;;;;5.78;1.95;;;;;;;22.32;46.31;102473.19;5033070;28;20120;-73
2023/09/24 10:58:03;;;;;;;4.75;1.80;;;;;;;22.53;45.88;102474.72;5032310;28;20040;-73
2023/09/24 11:00:32;;;;;;;3.80;1.90;;;;;;;22.29;45.38;102473.19;5032454;28;20499;-72
2023/09/24 11:03:00;;;;;;;5.32;1.70;;;;;;;22.53;46.08;102475.59;5032617;28;20034;-74
2023/09/24 11:05:27;;;;;;;4.47;1.70;;;;;;;22.51;46.56;102460.56;5032984;28;20033;-73
2023/09/24 11:07:53;;;;;;;4.75;1.58;;;;;;;22.01;44.62;102469.03;5032075;28;20439;-73
2023/09/24 11:10:20;;;;;;;5.03;1.70;;;;;;;22.26;43.80;102471.44;5032535;28;20208;-73
2023/09/24 11:13:02;;;;;;;2.67;1.23;;;;;;;22.35;43.88;102462.50;5031861;28;20036;-73
2023/09/24 11:15:36;;;;;;;6.15;1.50;;;;;;;22.39;43.08;102463.34;5032859;28;20033;-73
2023/09/24 11:18:02;;;;;;;;;;;;;;;22.44;42.54;102461.53;5032679;28;20029;-72
2023/09/24 11:20:31;;;;;;;4.32;1.70;;;;;;;22.59;42.19;102472.00;5032662;28;19917;-74
2023/09/24 11:22:58;;;;;;;3.47;1.52;;;;;;;22.41;42.43;102461.56;5032336;28;20116;-73
2023/09/24 11:25:26;;;;;;;3.10;1.40;;;;;;;22.62;42.46;102459.56;5032557;28;20397;-73
2023/09/24 11:28:02;;;;;;;5.10;1.35;;;;;;;22.43;42.78;102457.13;5032033;28;20490;-73
2023/09/24 11:30:49;;;;;;;4.80;1.40;;;;;;;22.69;41.38;102462.16;5032254;28;20112;-72
2023/09/24 11:33:34;;;;;;;3.22;1.23;;;;;;;22.61;42.13;102459.56;5032349;28;20037;-72
2023/09/24 11:36:00;;;;;;;3.30;1.50;;;;;;;22.40;43.23;102459.78;5031555;28;20031;-73
2023/09/24 11:38:33;;;;;;;3.05;1.38;;;;;;;22.35;43.66;102453.66;5029779;28;20026;-72